createdAt,value
2023-03-26T00:00:55.718Z,0.00
2023-03-26T00:01:55.728Z,0.00
2023-03-26T00:02:55.736Z,0.00
2023-03-26T00:03:55.697Z,0.00
2023-03-26T00:04:55.696Z,0.00
2023-03-26T00:05:55.901Z,0.00
2023-03-26T00:06:55.696Z,0.00
2023-03-26T00:07:55.683Z,0.00
2023-03-26T00:08:55.696Z,0.00
2023-03-26T00:09:55.683Z,0.00
2023-03-26T00:10:55.679Z,0.00
2023-03-26T00:11:55.683Z,0.00
2023-03-26T00:12:55.671Z,0.00
2023-03-26T00:13:55.690Z,0.00
2023-03-26T00:14:55.663Z,0.00
2023-03-26T00:15:55.806Z,0.00
2023-03-26T00:16:55.673Z,0.00
2023-03-26T00:17:55.681Z,0.00
2023-03-26T00:18:55.666Z,0.00
2023-03-26T00:19:55.653Z,0.00
2023-03-26T00:20:55.644Z,0.00
2023-03-26T00:21:55.652Z,0.00
2023-03-26T00:22:55.640Z,0.00
2023-03-26T00:23:55.635Z,0.00
2023-03-26T00:24:55.630Z,0.00
2023-03-26T00:25:55.882Z,0.00
2023-03-26T00:26:55.625Z,0.00
2023-03-26T00:27:55.642Z,0.00
2023-03-26T00:28:55.630Z,0.00
2023-03-26T00:29:55.638Z,0.00
2023-03-26T00:30:55.650Z,0.00
2023-03-26T00:31:55.612Z,0.00
2023-03-26T00:32:55.646Z,0.00
2023-03-26T00:33:55.772Z,0.00
2023-03-26T00:34:55.605Z,0.00
2023-03-26T00:35:55.921Z,0.00
2023-03-26T00:36:55.598Z,0.00
2023-03-26T00:37:55.594Z,0.00
2023-03-26T00:38:55.647Z,0.00
2023-03-26T00:39:55.591Z,0.00
2023-03-26T00:40:55.588Z,0.00
2023-03-26T00:41:55.584Z,0.00
2023-03-26T00:42:55.588Z,0.00
2023-03-26T00:43:55.577Z,0.00
2023-03-26T00:44:55.575Z,0.00
2023-03-26T00:45:55.820Z,0.00
2023-03-26T00:46:55.574Z,0.00
2023-03-26T00:47:55.603Z,0.00
2023-03-26T00:48:55.563Z,0.00
2023-03-26T00:49:55.558Z,0.00
2023-03-26T00:50:55.557Z,0.00
2023-03-26T00:51:55.553Z,0.00
2023-03-26T00:52:55.550Z,0.00
2023-03-26T00:53:55.560Z,0.00
2023-03-26T00:54:55.556Z,0.00
2023-03-26T00:55:55.678Z,0.00
2023-03-26T00:56:55.559Z,0.00
2023-03-26T00:57:55.538Z,0.00
2023-03-26T00:58:55.539Z,0.00
2023-03-26T00:59:55.543Z,0.00
2023-03-26T01:00:55.530Z,0.00
2023-03-26T01:01:55.568Z,0.00
2023-03-26T01:02:55.623Z,0.00
2023-03-26T01:04:07.566Z,0.00
2023-03-26T01:04:55.649Z,0.00
2023-03-26T01:05:55.657Z,0.00
2023-03-26T01:06:55.509Z,0.00
2023-03-26T01:07:55.512Z,0.00
2023-03-26T01:08:55.501Z,0.00
2023-03-26T01:09:55.492Z,0.00
2023-03-26T01:10:55.502Z,0.00
2023-03-26T01:11:55.488Z,0.00
2023-03-26T01:12:55.490Z,0.00
2023-03-26T01:13:55.481Z,0.00
2023-03-26T01:14:55.486Z,0.00
2023-03-26T01:15:55.634Z,0.00
2023-03-26T01:16:55.478Z,0.00
2023-03-26T01:17:55.521Z,0.00
2023-03-26T01:18:55.470Z,0.00
2023-03-26T01:19:55.473Z,0.00
2023-03-26T01:20:55.467Z,0.00
2023-03-26T01:21:55.460Z,0.00
2023-03-26T01:22:55.462Z,0.00
2023-03-26T01:23:55.449Z,0.00
2023-03-26T01:24:55.455Z,0.00
2023-03-26T01:25:55.674Z,0.00
2023-03-26T01:26:55.760Z,0.00
2023-03-26T01:27:55.442Z,0.00
2023-03-26T01:28:55.442Z,0.00
2023-03-26T01:29:55.434Z,0.00
2023-03-26T01:30:55.434Z,0.00
2023-03-26T01:31:55.424Z,0.00
2023-03-26T01:32:55.624Z,0.00
2023-03-26T01:33:55.449Z,0.00
2023-03-26T01:34:55.425Z,0.00
2023-03-26T01:35:55.686Z,0.00
2023-03-26T01:36:55.428Z,0.00
2023-03-26T01:37:55.410Z,0.00
2023-03-26T01:38:55.412Z,0.00
2023-03-26T01:39:55.404Z,0.00
2023-03-26T01:40:55.410Z,0.00
2023-03-26T01:41:55.403Z,0.00
2023-03-26T01:42:55.402Z,0.00
2023-03-26T01:43:55.408Z,0.00
2023-03-26T01:44:55.397Z,0.00
2023-03-26T01:45:55.669Z,0.00
2023-03-26T01:46:55.423Z,0.00
2023-03-26T01:47:55.401Z,0.00
2023-03-26T01:48:55.381Z,0.00
2023-03-26T01:49:55.394Z,0.00
2023-03-26T01:50:55.376Z,0.00
2023-03-26T01:51:55.365Z,0.00
2023-03-26T01:52:55.367Z,0.00
2023-03-26T01:53:55.366Z,0.00
2023-03-26T01:54:55.361Z,0.00
2023-03-26T01:55:55.536Z,0.00
2023-03-26T01:56:55.397Z,0.00
2023-03-26T01:57:55.350Z,0.00
2023-03-26T01:58:55.356Z,0.00
2023-03-26T01:59:55.342Z,0.00
2023-03-26T02:00:55.344Z,0.00
2023-03-26T02:01:55.436Z,0.00
2023-03-26T02:02:55.363Z,0.00
2023-03-26T02:03:55.334Z,0.00
2023-03-26T02:04:55.335Z,0.00
2023-03-26T02:05:55.540Z,0.00
2023-03-26T02:06:55.328Z,0.00
2023-03-26T02:07:55.318Z,0.00
2023-03-26T02:08:55.323Z,0.00
2023-03-26T02:09:55.321Z,0.00
2023-03-26T02:10:55.315Z,0.00
2023-03-26T02:11:55.307Z,0.00
2023-03-26T02:12:55.308Z,0.00
2023-03-26T02:13:55.299Z,0.00
2023-03-26T02:14:55.300Z,0.00
2023-03-26T02:15:55.475Z,0.00
2023-03-26T02:16:55.306Z,0.00
2023-03-26T02:17:55.336Z,0.00
2023-03-26T02:18:55.291Z,0.00
2023-03-26T02:19:55.283Z,0.00
2023-03-26T02:20:55.282Z,0.00
2023-03-26T02:21:55.291Z,0.00
2023-03-26T02:22:55.278Z,0.00
2023-03-26T02:23:55.266Z,0.00
2023-03-26T02:24:55.266Z,0.00
2023-03-26T02:25:55.539Z,0.00
2023-03-26T02:26:55.263Z,0.00
2023-03-26T02:27:55.257Z,0.00
2023-03-26T02:28:55.256Z,0.00
2023-03-26T02:29:55.252Z,0.00
2023-03-26T02:30:55.251Z,0.00
2023-03-26T02:31:55.301Z,0.00
2023-03-26T02:32:55.268Z,0.00
2023-03-26T02:33:55.240Z,0.00
2023-03-26T02:34:55.233Z,0.00
2023-03-26T02:35:55.471Z,0.00
2023-03-26T02:36:55.230Z,0.00
2023-03-26T02:37:55.241Z,0.00
2023-03-26T02:38:55.227Z,0.00
2023-03-26T02:39:55.215Z,0.00
2023-03-26T02:40:55.221Z,0.00
2023-03-26T02:41:55.218Z,0.00
2023-03-26T02:42:55.213Z,0.00
2023-03-26T02:43:55.200Z,0.00
2023-03-26T02:44:55.203Z,0.00
2023-03-26T02:45:55.531Z,0.00
2023-03-26T02:46:55.200Z,0.00
2023-03-26T02:47:55.247Z,0.00
2023-03-26T02:48:55.210Z,0.00
2023-03-26T02:49:55.189Z,0.00
2023-03-26T02:50:55.199Z,0.00
2023-03-26T02:51:55.183Z,0.00
2023-03-26T02:52:55.186Z,0.00
2023-03-26T02:53:55.195Z,0.00
2023-03-26T02:54:55.169Z,0.00
2023-03-26T02:55:55.320Z,0.00
2023-03-26T02:56:55.226Z,0.00
2023-03-26T02:57:55.164Z,0.00
2023-03-26T02:58:55.160Z,0.00
2023-03-26T02:59:55.149Z,0.00
2023-03-26T03:00:55.332Z,0.00
2023-03-26T03:01:55.174Z,0.00
2023-03-26T03:02:55.369Z,0.00
2023-03-26T03:03:55.144Z,0.00
2023-03-26T03:04:55.145Z,0.00
2023-03-26T03:05:55.328Z,0.00
2023-03-26T03:06:55.133Z,0.00
2023-03-26T03:07:55.137Z,0.00
2023-03-26T03:08:55.134Z,0.00
2023-03-26T03:09:55.151Z,0.00
2023-03-26T03:10:55.122Z,0.00
2023-03-26T03:11:55.112Z,0.00
2023-03-26T03:12:55.117Z,0.00
2023-03-26T03:13:55.107Z,0.00
2023-03-26T03:14:55.105Z,0.00
2023-03-26T03:15:55.261Z,0.00
2023-03-26T03:16:55.125Z,0.00
2023-03-26T03:17:55.114Z,0.00
2023-03-26T03:18:55.457Z,0.00
2023-03-26T03:19:55.092Z,0.00
2023-03-26T03:20:55.087Z,0.00
2023-03-26T03:21:55.084Z,0.00
2023-03-26T03:22:55.081Z,0.00
2023-03-26T03:23:55.080Z,0.00
2023-03-26T03:24:55.076Z,0.00
2023-03-26T03:25:55.220Z,0.00
2023-03-26T03:26:55.070Z,0.00
2023-03-26T03:27:55.064Z,0.00
2023-03-26T03:28:55.066Z,0.00
2023-03-26T03:29:55.064Z,0.00
2023-03-26T03:30:55.099Z,0.00
2023-03-26T03:31:55.077Z,0.00
2023-03-26T03:32:55.193Z,0.00
2023-03-26T03:33:55.088Z,0.00
2023-03-26T03:34:55.059Z,0.00
2023-03-26T03:35:55.265Z,0.00
2023-03-26T03:36:55.043Z,0.00
2023-03-26T03:37:55.031Z,0.00
2023-03-26T03:38:55.036Z,0.00
2023-03-26T03:39:55.036Z,0.00
2023-03-26T03:40:55.029Z,0.00
2023-03-26T03:41:55.109Z,0.00
2023-03-26T03:42:55.022Z,0.00
2023-03-26T03:43:55.017Z,0.00
2023-03-26T03:44:55.018Z,0.00
2023-03-26T03:45:55.145Z,0.00
2023-03-26T03:46:55.010Z,0.00
2023-03-26T03:47:55.096Z,0.00
2023-03-26T03:48:54.999Z,0.00
2023-03-26T03:49:55.003Z,0.00
2023-03-26T03:50:54.996Z,0.00
2023-03-26T03:51:55.005Z,0.00
2023-03-26T03:52:54.994Z,0.00
2023-03-26T03:53:54.989Z,0.00
2023-03-26T03:54:54.992Z,0.00
2023-03-26T03:55:55.129Z,0.00
2023-03-26T03:56:55.046Z,0.00
2023-03-26T03:57:55.002Z,0.00
2023-03-26T03:58:54.976Z,0.00
2023-03-26T03:59:54.966Z,0.00
2023-03-26T04:00:54.962Z,0.00
2023-03-26T04:01:54.959Z,0.00
2023-03-26T04:02:55.018Z,0.00
2023-03-26T04:03:55.057Z,0.00
2023-03-26T04:04:54.947Z,0.00
2023-03-26T04:05:55.489Z,0.00
2023-03-26T04:06:54.968Z,0.00
2023-03-26T04:07:54.948Z,0.00
2023-03-26T04:08:54.947Z,0.00
2023-03-26T04:09:54.935Z,0.00
2023-03-26T04:10:54.954Z,0.00
2023-03-26T04:11:54.933Z,0.00
2023-03-26T04:12:54.921Z,0.00
2023-03-26T04:13:54.988Z,0.00
2023-03-26T04:14:54.924Z,0.00
2023-03-26T04:15:55.275Z,0.00
2023-03-26T04:16:54.915Z,0.00
2023-03-26T04:17:54.985Z,0.00
2023-03-26T04:18:54.908Z,0.00
2023-03-26T04:19:55.045Z,0.00
2023-03-26T04:20:54.897Z,0.00
2023-03-26T04:21:54.902Z,0.00
2023-03-26T04:22:54.895Z,0.00
2023-03-26T04:23:54.893Z,0.00
2023-03-26T04:24:54.897Z,0.00
2023-03-26T04:25:55.086Z,0.00
2023-03-26T04:26:54.883Z,0.00
2023-03-26T04:27:54.878Z,0.00
2023-03-26T04:28:54.878Z,4.00
2023-03-26T04:29:54.932Z,4.00
2023-03-26T04:30:54.886Z,0.00
2023-03-26T04:31:54.911Z,4.00
2023-03-26T04:32:54.899Z,4.00
2023-03-26T04:33:54.866Z,4.00
2023-03-26T04:34:54.855Z,4.00
2023-03-26T04:35:55.046Z,4.00
2023-03-26T04:36:55.072Z,4.00
2023-03-26T04:37:54.862Z,4.00
2023-03-26T04:38:54.848Z,8.00
2023-03-26T04:39:54.853Z,8.00
2023-03-26T04:40:54.842Z,8.00
2023-03-26T04:41:54.838Z,12.00
2023-03-26T04:42:54.862Z,12.00
2023-03-26T04:43:54.832Z,16.00
2023-03-26T04:44:54.829Z,20.00
2023-03-26T04:45:55.028Z,24.00
2023-03-26T04:46:54.911Z,28.00
2023-03-26T04:47:54.849Z,40.00
2023-03-26T04:48:54.816Z,48.00
2023-03-26T04:49:54.814Z,48.00
2023-03-26T04:50:54.810Z,48.00
2023-03-26T04:51:54.810Z,52.00
2023-03-26T04:52:54.801Z,68.00
2023-03-26T04:53:54.817Z,76.00
2023-03-26T04:54:54.797Z,88.00
2023-03-26T04:55:54.952Z,108.00
2023-03-26T04:56:54.819Z,112.00
2023-03-26T04:57:54.791Z,108.00
2023-03-26T04:58:54.786Z,108.00
2023-03-26T04:59:54.792Z,108.00
2023-03-26T05:00:54.811Z,116.00
2023-03-26T05:01:54.816Z,144.00
2023-03-26T05:02:54.796Z,176.00
2023-03-26T05:03:54.797Z,192.00
2023-03-26T05:04:54.771Z,220.00
2023-03-26T05:05:54.914Z,248.00
2023-03-26T05:06:54.759Z,272.00
2023-03-26T05:07:54.759Z,280.00
2023-03-26T05:08:54.792Z,264.00
2023-03-26T05:09:54.756Z,244.00
2023-03-26T05:10:54.968Z,252.00
2023-03-26T05:11:54.749Z,268.00
2023-03-26T05:12:54.740Z,268.00
2023-03-26T05:13:54.752Z,284.00
2023-03-26T05:14:54.751Z,304.00
2023-03-26T05:15:54.739Z,280.00
2023-03-26T05:16:54.733Z,304.00
2023-03-26T05:17:54.784Z,324.00
2023-03-26T05:18:54.725Z,356.00
2023-03-26T05:19:54.728Z,360.00
2023-03-26T05:20:54.897Z,384.00
2023-03-26T05:21:54.724Z,364.00
2023-03-26T05:22:54.720Z,336.00
2023-03-26T05:23:54.714Z,316.00
2023-03-26T05:24:54.715Z,364.00
2023-03-26T05:25:54.711Z,448.00
2023-03-26T05:26:54.712Z,436.00
2023-03-26T05:27:54.702Z,392.00
2023-03-26T05:28:54.703Z,372.00
2023-03-26T05:29:54.693Z,352.00
2023-03-26T05:30:54.954Z,308.00
2023-03-26T05:31:54.689Z,472.00
2023-03-26T05:32:54.747Z,340.00
2023-03-26T05:33:54.755Z,308.00
2023-03-26T05:34:54.679Z,316.00
2023-03-26T05:35:54.771Z,312.00
2023-03-26T05:36:54.685Z,256.00
2023-03-26T05:37:54.675Z,352.00
2023-03-26T05:38:54.669Z,460.00
2023-03-26T05:39:54.669Z,732.00
2023-03-26T05:40:54.820Z,772.00
2023-03-26T05:41:54.685Z,556.00
2023-03-26T05:42:54.668Z,616.00
2023-03-26T05:43:54.667Z,664.00
2023-03-26T05:44:54.658Z,564.00
2023-03-26T05:45:54.698Z,572.00
2023-03-26T05:46:54.653Z,576.00
2023-03-26T05:47:54.764Z,492.00
2023-03-26T05:48:54.647Z,596.00
2023-03-26T05:49:54.667Z,680.00
2023-03-26T05:50:54.974Z,772.00
2023-03-26T05:51:55.539Z,900.00
2023-03-26T05:52:54.634Z,1032.00
2023-03-26T05:53:54.634Z,1160.00
2023-03-26T05:54:54.632Z,1072.00
2023-03-26T05:55:54.629Z,960.00
2023-03-26T05:56:54.657Z,920.00
2023-03-26T05:57:54.629Z,1064.00
2023-03-26T05:58:54.617Z,1384.00
2023-03-26T05:59:54.620Z,1524.00
2023-03-26T06:00:54.803Z,1664.00
2023-03-26T06:01:54.677Z,1740.00
2023-03-26T06:02:56.879Z,1732.00
2023-03-26T06:03:54.680Z,1808.00
2023-03-26T06:04:54.632Z,1324.00
2023-03-26T06:05:54.617Z,892.00
2023-03-26T06:06:54.604Z,596.00
2023-03-26T06:07:54.594Z,740.00
2023-03-26T06:09:02.131Z,912.00
2023-03-26T06:09:54.589Z,728.00
2023-03-26T06:10:54.843Z,784.00
2023-03-26T06:11:54.587Z,860.00
2023-03-26T06:12:54.577Z,888.00
2023-03-26T06:13:54.580Z,784.00
2023-03-26T06:14:54.577Z,588.00
2023-03-26T06:15:54.616Z,632.00
2023-03-26T06:16:54.560Z,824.00
2023-03-26T06:17:54.615Z,1056.00
2023-03-26T06:18:56.428Z,1412.00
2023-03-26T06:19:54.562Z,1524.00
2023-03-26T06:20:54.789Z,1124.00
2023-03-26T06:21:54.609Z,1024.00
2023-03-26T06:22:54.549Z,1112.00
2023-03-26T06:23:54.565Z,920.00
2023-03-26T06:24:54.543Z,624.00
2023-03-26T06:25:54.544Z,572.00
2023-03-26T06:26:54.542Z,624.00
2023-03-26T06:27:54.542Z,728.00
2023-03-26T06:28:54.537Z,800.00
2023-03-26T06:29:54.541Z,1048.00
2023-03-26T06:31:55.418Z,2128.00
2023-03-26T06:39:22.142Z,1336.00
2023-03-26T06:40:22.006Z,1576.00
2023-03-26T06:42:21.956Z,3172.00
2023-03-26T06:43:21.955Z,2376.00
2023-03-26T06:44:21.952Z,1952.00
2023-03-26T06:45:21.945Z,1712.00
2023-03-26T06:46:21.974Z,1880.00
2023-03-26T06:47:21.991Z,2284.00
2023-03-26T06:48:21.937Z,2228.00
2023-03-26T06:49:21.937Z,2456.00
2023-03-26T06:50:21.933Z,2248.00
2023-03-26T06:51:21.930Z,2252.00
2023-03-26T06:52:21.929Z,1904.00
2023-03-26T06:53:21.937Z,1588.00
2023-03-26T06:54:21.932Z,1696.00
2023-03-26T06:55:21.956Z,1400.00
2023-03-26T06:56:21.927Z,1124.00
2023-03-26T06:57:21.922Z,964.00
2023-03-26T06:58:21.919Z,944.00
2023-03-26T06:59:21.916Z,948.00
2023-03-26T07:00:21.915Z,1272.00
2023-03-26T07:01:21.954Z,1436.00
2023-03-26T07:02:21.961Z,1272.00
2023-03-26T07:03:21.909Z,1272.00
2023-03-26T07:04:21.937Z,1340.00
2023-03-26T07:05:22.681Z,1456.00
2023-03-26T07:06:21.899Z,1760.00
2023-03-26T07:07:21.898Z,1764.00
2023-03-26T07:08:22.915Z,1656.00
2023-03-26T07:09:21.896Z,1728.00
2023-03-26T07:10:21.887Z,1912.00
2023-03-26T07:11:21.909Z,2388.00
2023-03-26T07:12:21.883Z,2668.00
2023-03-26T07:13:21.997Z,2852.00
2023-03-26T07:14:21.876Z,3140.00
2023-03-26T07:15:21.918Z,3616.00
2023-03-26T07:16:21.932Z,3740.00
2023-03-26T07:17:21.875Z,3920.00
2023-03-26T07:18:22.040Z,4760.00
2023-03-26T07:19:21.868Z,5912.00
2023-03-26T07:20:21.859Z,6944.00
2023-03-26T07:21:21.869Z,8864.00
2023-03-26T07:22:21.858Z,12156.00
2023-03-26T07:23:21.875Z,14408.00
2023-03-26T07:24:21.867Z,9676.00
2023-03-26T07:25:21.859Z,10016.00
2023-03-26T07:26:21.855Z,9644.00
2023-03-26T07:27:21.869Z,6692.00
2023-03-26T07:28:21.855Z,5680.00
2023-03-26T07:29:21.844Z,6708.00
2023-03-26T07:30:21.849Z,8592.00
2023-03-26T07:31:21.926Z,10020.00
2023-03-26T07:32:21.880Z,13564.00
2023-03-26T07:33:21.840Z,11348.00
2023-03-26T07:34:21.843Z,14988.00
2023-03-26T07:35:21.884Z,9444.00
2023-03-26T07:36:21.848Z,8516.00
2023-03-26T07:37:21.839Z,8052.00
2023-03-26T07:38:21.822Z,7936.00
2023-03-26T07:39:21.823Z,7932.00
2023-03-26T07:40:21.898Z,8360.00
2023-03-26T07:41:21.820Z,9080.00
2023-03-26T07:42:21.816Z,10380.00
2023-03-26T07:43:21.838Z,9824.00
2023-03-26T07:44:21.812Z,11024.00
2023-03-26T07:45:21.823Z,11020.00
2023-03-26T07:46:21.829Z,11432.00
2023-03-26T07:47:21.807Z,10256.00
2023-03-26T07:48:21.805Z,8260.00
2023-03-26T07:49:21.812Z,6772.00
2023-03-26T07:50:21.822Z,6020.00
2023-03-26T07:51:21.812Z,6592.00
2023-03-26T07:52:21.801Z,6488.00
2023-03-26T07:53:21.808Z,6240.00
2023-03-26T07:54:21.806Z,6016.00
2023-03-26T07:55:21.794Z,6272.00
2023-03-26T07:56:21.841Z,6936.00
2023-03-26T07:57:21.876Z,6860.00
2023-03-26T07:58:21.787Z,6828.00
2023-03-26T07:59:21.821Z,6540.00
2023-03-26T08:00:21.782Z,6268.00
2023-03-26T08:01:21.803Z,5468.00
2023-03-26T08:02:21.841Z,5264.00
2023-03-26T08:03:21.913Z,6032.00
2023-03-26T08:04:24.129Z,6340.00
2023-03-26T08:05:21.779Z,6024.00
2023-03-26T08:06:21.778Z,5508.00
2023-03-26T08:07:21.775Z,5128.00
2023-03-26T08:08:21.774Z,5640.00
2023-03-26T08:09:21.775Z,5996.00
2023-03-26T08:10:21.766Z,5644.00
2023-03-26T08:11:21.774Z,5024.00
2023-03-26T08:12:21.764Z,4224.00
2023-03-26T08:13:21.763Z,4360.00
2023-03-26T08:14:21.814Z,4752.00
2023-03-26T08:15:21.794Z,4712.00
2023-03-26T08:16:21.811Z,4304.00
2023-03-26T08:17:21.793Z,4176.00
2023-03-26T08:18:21.770Z,3468.00
2023-03-26T08:19:21.751Z,3548.00
2023-03-26T08:20:21.756Z,4780.00
2023-03-26T08:21:21.758Z,4636.00
2023-03-26T08:22:21.747Z,5244.00
2023-03-26T08:23:21.750Z,5428.00
2023-03-26T08:24:21.756Z,5376.00
2023-03-26T08:25:21.744Z,5680.00
2023-03-26T08:26:21.738Z,5508.00
2023-03-26T08:27:21.737Z,4908.00
2023-03-26T08:28:21.744Z,4680.00
2023-03-26T08:29:21.732Z,5868.00
2023-03-26T08:30:21.768Z,7164.00
2023-03-26T08:31:21.782Z,8240.00
2023-03-26T08:32:21.734Z,9300.00
2023-03-26T08:33:21.730Z,8720.00
2023-03-26T08:34:21.744Z,7552.00
2023-03-26T08:35:21.772Z,6048.00
2023-03-26T08:36:21.720Z,6300.00
2023-03-26T08:37:21.734Z,6088.00
2023-03-26T08:38:21.731Z,6476.00
2023-03-26T08:39:21.719Z,6732.00
2023-03-26T08:40:21.711Z,7780.00
2023-03-26T08:41:21.718Z,7684.00
2023-03-26T08:42:21.709Z,6804.00
2023-03-26T08:43:21.708Z,7156.00
2023-03-26T08:44:21.714Z,7896.00
2023-03-26T08:45:21.716Z,7852.00
2023-03-26T08:46:21.771Z,9304.00
2023-03-26T08:47:21.733Z,10424.00
2023-03-26T08:48:21.704Z,10024.00
2023-03-26T08:49:23.298Z,9072.00
2023-03-26T08:50:21.711Z,9444.00
2023-03-26T08:51:21.703Z,10092.00
2023-03-26T08:52:21.706Z,10504.00
2023-03-26T08:53:21.710Z,11564.00
2023-03-26T08:54:21.705Z,11592.00
2023-03-26T08:55:21.699Z,11224.00
2023-03-26T08:56:21.704Z,11248.00
2023-03-26T08:57:21.695Z,11404.00
2023-03-26T08:58:21.695Z,11636.00
2023-03-26T08:59:21.695Z,12652.00
2023-03-26T09:00:21.687Z,13424.00
2023-03-26T09:01:21.777Z,13000.00
2023-03-26T09:02:21.690Z,11052.00
2023-03-26T09:03:21.710Z,9776.00
2023-03-26T09:04:21.679Z,10692.00
2023-03-26T09:05:21.686Z,9604.00
2023-03-26T09:06:22.652Z,7988.00
2023-03-26T09:07:21.678Z,6884.00
2023-03-26T09:08:21.672Z,5940.00
2023-03-26T09:09:21.687Z,5248.00
2023-03-26T09:10:21.680Z,4672.00
2023-03-26T09:11:21.688Z,4620.00
2023-03-26T09:12:22.504Z,4248.00
2023-03-26T09:13:21.684Z,3704.00
2023-03-26T09:14:21.670Z,3124.00
2023-03-26T09:15:21.676Z,2840.00
2023-03-26T09:16:21.746Z,3708.00
2023-03-26T09:17:21.671Z,4628.00
2023-03-26T09:18:21.668Z,4864.00
2023-03-26T09:19:21.687Z,3924.00
2023-03-26T09:20:21.662Z,2852.00
2023-03-26T09:21:21.697Z,3140.00
2023-03-26T09:22:21.661Z,3464.00
2023-03-26T09:23:21.663Z,2832.00
2023-03-26T09:24:21.662Z,3104.00
2023-03-26T09:25:21.669Z,4324.00
2023-03-26T09:26:21.655Z,3456.00
2023-03-26T09:27:21.663Z,2544.00
2023-03-26T09:28:21.657Z,2824.00
2023-03-26T09:29:21.658Z,3824.00
2023-03-26T09:30:21.726Z,4928.00
2023-03-26T09:31:21.683Z,4880.00
2023-03-26T09:32:21.672Z,4700.00
2023-03-26T09:33:21.670Z,4780.00
2023-03-26T09:34:21.651Z,5216.00
2023-03-26T09:35:21.703Z,5572.00
2023-03-26T09:36:21.682Z,5520.00
2023-03-26T09:37:21.649Z,4920.00
2023-03-26T09:38:21.645Z,4188.00
2023-03-26T09:39:21.644Z,3484.00
2023-03-26T09:40:21.647Z,2832.00
2023-03-26T09:41:21.641Z,3080.00
2023-03-26T09:42:21.638Z,3224.00
2023-03-26T09:43:21.639Z,3516.00
2023-03-26T09:44:21.632Z,3852.00
2023-03-26T09:45:21.642Z,3540.00
2023-03-26T09:46:21.687Z,2708.00
2023-03-26T09:47:21.680Z,2400.00
2023-03-26T09:48:21.627Z,2944.00
2023-03-26T09:49:21.633Z,3208.00
2023-03-26T09:50:21.636Z,3316.00
2023-03-26T09:51:21.662Z,2720.00
2023-03-26T09:52:21.619Z,2268.00
2023-03-26T09:53:21.629Z,2128.00
2023-03-26T09:54:21.618Z,2652.00
2023-03-26T09:55:21.626Z,2672.00
2023-03-26T09:56:21.634Z,2288.00
2023-03-26T09:57:21.721Z,1940.00
2023-03-26T09:58:21.612Z,1612.00
2023-03-26T09:59:21.619Z,1408.00
2023-03-26T10:00:21.652Z,1504.00
2023-03-26T10:01:21.636Z,1688.00
2023-03-26T10:02:21.606Z,1732.00
2023-03-26T10:03:21.664Z,1548.00
2023-03-26T10:04:21.630Z,1704.00
2023-03-26T10:05:21.629Z,1588.00
2023-03-26T10:06:21.623Z,1928.00
2023-03-26T10:07:21.626Z,2160.00
2023-03-26T10:08:21.597Z,1940.00
2023-03-26T10:09:21.611Z,1708.00
2023-03-26T10:10:21.594Z,1444.00
2023-03-26T10:11:21.588Z,1660.00
2023-03-26T10:12:21.589Z,1716.00
2023-03-26T10:13:21.597Z,1600.00
2023-03-26T10:14:21.588Z,1540.00
2023-03-26T10:15:22.832Z,1900.00
2023-03-26T10:16:21.603Z,2328.00
2023-03-26T10:17:21.586Z,2304.00
2023-03-26T10:18:27.169Z,2316.00
2023-03-26T10:19:21.579Z,2480.00
2023-03-26T10:20:21.581Z,2724.00
2023-03-26T10:21:24.340Z,3388.00
2023-03-26T10:22:21.606Z,4028.00
2023-03-26T10:23:21.612Z,4664.00
2023-03-26T10:24:21.571Z,4440.00
2023-03-26T10:25:21.575Z,3560.00
2023-03-26T10:26:21.569Z,2788.00
2023-03-26T10:27:23.575Z,2504.00
2023-03-26T10:28:21.567Z,2224.00
2023-03-26T10:29:21.566Z,2200.00
2023-03-26T10:30:21.576Z,2512.00
2023-03-26T10:31:21.594Z,3124.00
2023-03-26T10:32:21.558Z,3656.00
2023-03-26T10:33:22.466Z,4828.00
2023-03-26T10:34:28.478Z,6916.00
2023-03-26T10:35:21.561Z,9444.00
2023-03-26T10:36:21.555Z,9356.00
2023-03-26T10:37:21.554Z,8020.00
2023-03-26T10:38:21.549Z,7112.00
2023-03-26T10:39:36.392Z,6004.00
2023-03-26T10:40:21.539Z,4712.00
2023-03-26T10:41:21.548Z,3736.00
2023-03-26T10:42:21.537Z,3672.00
2023-03-26T10:43:21.541Z,4004.00
2023-03-26T10:44:21.534Z,4588.00
2023-03-26T10:45:21.539Z,4932.00
2023-03-26T10:46:21.578Z,4404.00
2023-03-26T10:47:21.553Z,3760.00
2023-03-26T10:48:21.526Z,3608.00
2023-03-26T10:49:21.530Z,3796.00
2023-03-26T10:50:23.624Z,3912.00
2023-03-26T10:51:21.528Z,3692.00
2023-03-26T10:52:21.525Z,3916.00
2023-03-26T10:53:21.530Z,3888.00
2023-03-26T10:54:21.523Z,3628.00
2023-03-26T10:55:23.134Z,3724.00
2023-03-26T10:56:21.517Z,3956.00
2023-03-26T10:57:21.523Z,4144.00
2023-03-26T10:58:21.518Z,4320.00
2023-03-26T10:59:21.508Z,4536.00
2023-03-26T11:00:21.553Z,4752.00
2023-03-26T11:01:21.566Z,5144.00
2023-03-26T11:02:30.512Z,5292.00
2023-03-26T11:03:21.515Z,5396.00
2023-03-26T11:04:21.522Z,5228.00
2023-03-26T11:05:21.530Z,6216.00
2023-03-26T11:06:21.522Z,7140.00
2023-03-26T11:07:21.511Z,6824.00
2023-03-26T11:08:21.529Z,6224.00
2023-03-26T11:09:21.514Z,7492.00
2023-03-26T11:10:21.510Z,8144.00
2023-03-26T11:11:21.649Z,7568.00
2023-03-26T11:12:26.791Z,7148.00
2023-03-26T11:13:21.507Z,6392.00
2023-03-26T11:14:32.156Z,5412.00
2023-03-26T11:15:21.499Z,5064.00
2023-03-26T11:16:21.560Z,5552.00
2023-03-26T11:17:40.454Z,6476.00
2023-03-26T11:18:21.543Z,6584.00
2023-03-26T11:19:21.491Z,5920.00
2023-03-26T11:20:21.507Z,5208.00
2023-03-26T11:21:21.504Z,5096.00
2023-03-26T11:22:21.497Z,5324.00
2023-03-26T11:23:21.498Z,5160.00
2023-03-26T11:24:21.499Z,4792.00
2023-03-26T11:25:21.487Z,4220.00
2023-03-26T11:26:21.492Z,3760.00
2023-03-26T11:27:23.762Z,3888.00
2023-03-26T11:28:21.491Z,3512.00
2023-03-26T11:29:31.007Z,3624.00
2023-03-26T11:30:21.547Z,5400.00
2023-03-26T11:31:21.518Z,6760.00
2023-03-26T11:32:21.508Z,7116.00
2023-03-26T11:33:21.489Z,7716.00
2023-03-26T11:34:21.506Z,8924.00
2023-03-26T11:35:39.697Z,11224.00
2023-03-26T11:36:21.519Z,14436.00
2023-03-26T11:37:21.473Z,16568.00
2023-03-26T11:38:21.486Z,19488.00
2023-03-26T11:39:21.470Z,16536.00
2023-03-26T11:40:21.568Z,15552.00
2023-03-26T11:41:22.804Z,15376.00
2023-03-26T11:42:21.482Z,16928.00
2023-03-26T11:43:21.491Z,14752.00
2023-03-26T11:44:21.471Z,14408.00
2023-03-26T11:45:21.487Z,13264.00
2023-03-26T11:46:21.521Z,14756.00
2023-03-26T11:47:21.495Z,14692.00
2023-03-26T11:48:21.470Z,15064.00
2023-03-26T11:49:21.462Z,10992.00
2023-03-26T11:50:21.473Z,13576.00
2023-03-26T11:51:21.462Z,14532.00
2023-03-26T11:52:21.471Z,12832.00
2023-03-26T11:53:21.462Z,12268.00
2023-03-26T11:54:21.461Z,12320.00
2023-03-26T11:55:21.455Z,13416.00
2023-03-26T11:56:21.490Z,13572.00
2023-03-26T11:57:21.513Z,12540.00
2023-03-26T11:58:21.464Z,9000.00
2023-03-26T11:59:21.830Z,9704.00
2023-03-26T12:00:21.459Z,11476.00
2023-03-26T12:01:21.446Z,13180.00
2023-03-26T12:02:21.501Z,12736.00
2023-03-26T12:03:21.489Z,9880.00
2023-03-26T12:04:21.474Z,8972.00
2023-03-26T12:05:21.453Z,7756.00
2023-03-26T12:06:21.451Z,6516.00
2023-03-26T12:07:21.450Z,6052.00
2023-03-26T12:08:21.455Z,5976.00
2023-03-26T12:09:21.447Z,8944.00
2023-03-26T12:10:21.465Z,11360.00
2023-03-26T12:11:21.447Z,11504.00
2023-03-26T12:12:21.447Z,13176.00
2023-03-26T12:13:21.442Z,10992.00
2023-03-26T12:14:21.446Z,10792.00
2023-03-26T12:15:21.470Z,11608.00
2023-03-26T12:16:21.464Z,12928.00
2023-03-26T12:17:21.443Z,13028.00
2023-03-26T12:18:21.440Z,13436.00
2023-03-26T12:19:21.442Z,13372.00
2023-03-26T12:20:21.448Z,13824.00
2023-03-26T12:21:21.441Z,14704.00
2023-03-26T12:22:21.441Z,13024.00
2023-03-26T12:23:21.441Z,13440.00
2023-03-26T12:24:21.443Z,10620.00
2023-03-26T12:25:21.442Z,11020.00
2023-03-26T12:26:21.439Z,12380.00
2023-03-26T12:27:21.440Z,12172.00
2023-03-26T12:28:21.457Z,12040.00
2023-03-26T12:29:21.435Z,11448.00
2023-03-26T12:30:21.470Z,12900.00
2023-03-26T12:31:21.494Z,14080.00
2023-03-26T12:32:22.554Z,12548.00
2023-03-26T12:33:21.493Z,10556.00
2023-03-26T12:34:21.455Z,11708.00
2023-03-26T12:35:21.441Z,13248.00
2023-03-26T12:36:21.447Z,14512.00
2023-03-26T12:37:21.449Z,11308.00
2023-03-26T12:38:21.443Z,9644.00
2023-03-26T12:40:08.989Z,9712.00
2023-03-26T12:40:22.254Z,8652.00
2023-03-26T12:44:42.086Z,8204.00